createdAt,value
2022-11-12T00:02:04.222Z,4.90
2022-11-12T00:07:26.921Z,4.86
2022-11-12T00:12:51.950Z,4.98
2022-11-12T00:18:13.595Z,4.82
2022-11-12T00:23:37.029Z,4.80
2022-11-12T00:28:57.274Z,4.92
2022-11-12T00:34:19.746Z,4.85
2022-11-12T00:39:40.836Z,4.85
2022-11-12T00:45:05.083Z,4.79
2022-11-12T00:50:26.181Z,4.65
2022-11-12T00:55:46.757Z,4.71
2022-11-12T01:01:12.415Z,4.93
2022-11-12T01:06:32.676Z,4.72
2022-11-12T01:11:54.626Z,4.65
2022-11-12T01:17:14.805Z,4.59
2022-11-12T01:22:37.346Z,4.62
2022-11-12T01:27:59.692Z,4.77
2022-11-12T01:33:22.696Z,4.78
2022-11-12T01:38:44.859Z,4.71
2022-11-12T01:44:21.279Z,4.64
2022-11-12T01:49:41.180Z,4.53
2022-11-12T01:55:09.246Z,4.52
2022-11-12T02:00:29.674Z,4.74
2022-11-12T02:05:55.135Z,4.79
2022-11-12T02:11:17.606Z,4.76
2022-11-12T02:16:41.185Z,4.63
2022-11-12T02:22:01.504Z,4.55
2022-11-12T02:27:23.064Z,4.72
2022-11-12T02:32:43.069Z,4.71
2022-11-12T02:38:03.818Z,4.73
2022-11-12T02:43:24.137Z,4.61
2022-11-12T02:48:45.181Z,4.63
2022-11-12T02:54:05.235Z,4.62
2022-11-12T02:59:25.476Z,4.53
2022-11-12T03:04:49.391Z,4.49
2022-11-12T03:10:10.582Z,4.33
2022-11-12T03:15:31.003Z,4.45
2022-11-12T03:20:53.963Z,4.43
2022-11-12T03:26:14.214Z,4.35
2022-11-12T03:31:35.728Z,4.32
2022-11-12T03:36:55.813Z,4.17
2022-11-12T03:42:16.124Z,4.10
2022-11-12T03:47:36.361Z,3.99
2022-11-12T03:52:59.564Z,3.90
2022-11-12T03:58:19.584Z,3.89
2022-11-12T04:03:39.931Z,4.00
2022-11-12T04:08:59.975Z,4.06
2022-11-12T04:14:20.408Z,4.02
2022-11-12T04:19:59.260Z,3.98
2022-11-12T04:25:37.810Z,3.92
2022-11-12T04:30:57.961Z,3.96
2022-11-12T04:36:18.136Z,4.08
2022-11-12T04:41:56.936Z,3.98
2022-11-12T04:47:17.136Z,3.68
2022-11-12T04:52:37.348Z,3.85
2022-11-12T04:58:00.536Z,3.90
2022-11-12T05:03:21.489Z,3.95
2022-11-12T05:08:41.851Z,3.76
2022-11-12T05:14:01.940Z,3.68
2022-11-12T05:19:22.262Z,3.82
2022-11-12T05:24:44.385Z,3.68
2022-11-12T05:30:05.116Z,3.32
2022-11-12T05:35:25.113Z,3.33
2022-11-12T05:40:45.527Z,3.22
2022-11-12T05:46:06.031Z,3.33
2022-11-12T05:51:26.010Z,3.15
2022-11-12T05:56:46.729Z,3.02
2022-11-12T06:02:06.887Z,2.99
2022-11-12T06:07:27.061Z,3.09
2022-11-12T06:12:47.407Z,3.02
2022-11-12T06:18:07.715Z,3.09
2022-11-12T06:23:28.105Z,3.00
2022-11-12T06:28:49.035Z,3.04
2022-11-12T06:34:09.511Z,3.04
2022-11-12T06:39:29.771Z,2.91
2022-11-12T06:44:50.040Z,2.98
2022-11-12T06:50:10.265Z,3.15
2022-11-12T06:55:30.641Z,3.11
2022-11-12T07:00:50.759Z,3.12
2022-11-12T07:06:14.534Z,3.24
2022-11-12T07:11:34.905Z,3.40
2022-11-12T07:16:54.985Z,3.46
2022-11-12T07:22:15.232Z,3.47
2022-11-12T07:27:35.467Z,3.71
2022-11-12T07:32:58.428Z,3.64
2022-11-12T07:38:18.670Z,3.83
2022-11-12T07:43:40.306Z,3.68
2022-11-12T07:49:00.517Z,4.01
2022-11-12T07:54:20.556Z,4.20
2022-11-12T07:59:45.672Z,4.46
2022-11-12T08:05:12.135Z,4.66
2022-11-12T08:10:35.396Z,4.81
2022-11-12T08:15:59.404Z,5.19
2022-11-12T08:21:19.759Z,5.56
2022-11-12T08:26:40.058Z,6.03
2022-11-12T08:32:00.282Z,5.80
2022-11-12T08:37:20.361Z,6.15
2022-11-12T08:42:40.625Z,5.78
2022-11-12T08:48:02.485Z,6.96
2022-11-12T08:53:24.508Z,7.67
2022-11-12T08:58:44.573Z,8.84
2022-11-12T09:04:04.973Z,10.90
2022-11-12T09:09:25.277Z,11.54
2022-11-12T09:14:46.553Z,13.64
2022-11-12T09:20:07.144Z,13.91
2022-11-12T09:25:27.691Z,15.39
2022-11-12T09:30:50.197Z,14.91
2022-11-12T09:36:10.331Z,15.90
2022-11-12T09:41:48.822Z,18.38
2022-11-12T09:47:29.714Z,21.07
2022-11-12T09:52:56.098Z,21.25
2022-11-12T09:58:18.849Z,20.78
2022-11-12T10:03:50.288Z,20.43
2022-11-12T10:09:42.545Z,18.04
2022-11-12T10:15:54.731Z,18.47
2022-11-12T10:21:31.447Z,19.88
2022-11-12T10:26:53.313Z,20.58
2022-11-12T10:32:16.053Z,20.95
2022-11-12T10:37:46.541Z,22.98
2022-11-12T10:43:15.452Z,25.24
2022-11-12T10:48:36.657Z,24.23
2022-11-12T10:53:56.967Z,25.04
2022-11-12T10:59:21.759Z,26.36
2022-11-12T11:04:41.883Z,24.99
2022-11-12T11:10:02.152Z,25.37
2022-11-12T11:15:24.221Z,26.41
2022-11-12T11:20:52.162Z,26.87
2022-11-12T11:26:30.121Z,24.94
2022-11-12T11:31:59.229Z,25.80
2022-11-12T11:37:28.469Z,25.42
2022-11-12T11:43:25.958Z,27.19
2022-11-12T11:48:54.946Z,25.96
2022-11-12T11:54:30.120Z,27.51
2022-11-12T12:00:24.035Z,25.10
2022-11-12T12:06:21.739Z,25.87
2022-11-12T12:11:57.233Z,27.77
2022-11-12T12:17:37.828Z,28.06
2022-11-12T12:23:04.571Z,27.67
2022-11-12T12:28:42.331Z,27.32
2022-11-12T12:34:06.652Z,27.01
2022-11-12T12:39:47.761Z,24.02
2022-11-12T12:45:24.085Z,23.64
2022-11-12T12:50:46.135Z,22.48
2022-11-12T12:56:32.375Z,21.80
2022-11-12T13:01:59.191Z,21.74
2022-11-12T13:07:38.797Z,20.72
2022-11-12T13:13:17.192Z,20.89
2022-11-12T13:18:37.199Z,19.66
2022-11-12T13:24:09.013Z,19.19
2022-11-12T13:29:29.213Z,17.80
2022-11-12T13:34:49.503Z,18.07
2022-11-12T13:40:54.687Z,18.30
2022-11-12T13:46:33.379Z,18.45
2022-11-12T13:51:56.729Z,18.64
2022-11-12T13:57:20.236Z,16.87
2022-11-12T14:02:49.076Z,17.65
2022-11-12T14:08:15.003Z,16.33
2022-11-12T14:13:41.188Z,16.14
2022-11-12T14:19:13.454Z,16.59
2022-11-12T14:24:33.453Z,15.95
2022-11-12T14:30:12.692Z,15.32
2022-11-12T14:35:38.069Z,13.66
2022-11-12T14:41:01.965Z,13.46
2022-11-12T14:46:44.013Z,12.71
2022-11-12T14:52:20.621Z,12.12
2022-11-12T14:57:41.409Z,11.45
2022-11-12T15:03:02.161Z,10.93
2022-11-12T15:08:32.170Z,10.43
2022-11-12T15:13:54.526Z,10.08
2022-11-12T15:19:15.252Z,9.86
2022-11-12T15:24:37.710Z,9.76
2022-11-12T15:30:24.484Z,9.10
2022-11-12T15:35:45.248Z,8.57
2022-11-12T15:41:06.328Z,8.71
2022-11-12T15:46:26.720Z,8.82
2022-11-12T15:51:46.922Z,8.48
2022-11-12T15:57:13.515Z,8.45
2022-11-12T16:02:33.900Z,8.24
2022-11-12T16:07:54.143Z,8.09
2022-11-12T16:13:19.163Z,7.71
2022-11-12T16:18:39.285Z,7.71
2022-11-12T16:23:59.599Z,7.57
2022-11-12T16:29:19.985Z,7.32
2022-11-12T16:34:39.848Z,7.25
2022-11-12T16:40:00.008Z,7.11
2022-11-12T16:45:25.896Z,6.91
2022-11-12T16:50:46.943Z,6.91
2022-11-12T16:56:12.219Z,6.74
2022-11-12T17:01:33.334Z,6.69
2022-11-12T17:06:53.689Z,6.27
2022-11-12T17:12:13.853Z,6.02
2022-11-12T17:17:34.162Z,6.38
2022-11-12T17:22:54.311Z,6.13
2022-11-12T17:28:14.660Z,6.21
2022-11-12T17:33:38.632Z,6.05
2022-11-12T17:39:00.339Z,5.85
2022-11-12T17:44:20.907Z,5.85
2022-11-12T17:49:40.990Z,5.84
2022-11-12T17:55:01.220Z,5.62
2022-11-12T18:00:21.711Z,5.72
2022-11-12T18:05:41.858Z,5.62
2022-11-12T18:11:03.020Z,5.49
2022-11-12T18:16:25.912Z,5.31
2022-11-12T18:21:45.914Z,5.13
2022-11-12T18:27:06.396Z,5.22
2022-11-12T18:32:26.838Z,5.11
2022-11-12T18:37:47.212Z,5.16
2022-11-12T18:43:07.411Z,4.98
2022-11-12T18:48:29.921Z,4.83
2022-11-12T18:53:49.944Z,4.85
2022-11-12T18:59:11.764Z,4.79
2022-11-12T19:04:32.190Z,4.62
2022-11-12T19:09:52.207Z,4.62
2022-11-12T19:15:12.478Z,4.45
2022-11-12T19:20:32.789Z,3.97
2022-11-12T19:25:53.363Z,4.04
2022-11-12T19:31:18.256Z,4.15
2022-11-12T19:36:38.307Z,4.15
2022-11-12T19:41:58.458Z,4.25
2022-11-12T19:47:18.882Z,4.05
2022-11-12T19:52:39.141Z,4.06
2022-11-12T19:57:59.772Z,3.99
2022-11-12T20:03:22.473Z,3.91
2022-11-12T20:08:42.466Z,3.92
2022-11-12T20:14:02.765Z,3.74
2022-11-12T20:19:23.129Z,3.79
2022-11-12T20:24:43.320Z,3.77
2022-11-12T20:30:04.796Z,3.48
2022-11-12T20:35:24.981Z,3.35
2022-11-12T20:40:45.298Z,3.59
2022-11-12T20:46:05.608Z,3.41
2022-11-12T20:51:30.784Z,3.36
2022-11-12T20:56:50.798Z,3.62
2022-11-12T21:02:11.120Z,3.38
2022-11-12T21:07:31.692Z,3.25
2022-11-12T21:12:52.287Z,3.20
2022-11-12T21:18:12.562Z,3.06
2022-11-12T21:23:36.766Z,3.00
2022-11-12T21:28:57.062Z,2.75
2022-11-12T21:34:17.289Z,2.79
2022-11-12T21:39:37.682Z,2.77
2022-11-12T21:44:57.867Z,2.83
2022-11-12T21:50:18.281Z,2.91
2022-11-12T21:55:38.428Z,2.93
2022-11-12T22:01:08.996Z,2.48
2022-11-12T22:06:29.952Z,2.55
2022-11-12T22:11:49.859Z,2.92
2022-11-12T22:17:10.765Z,2.70
2022-11-12T22:22:31.733Z,2.52
2022-11-12T22:27:51.978Z,2.37
2022-11-12T22:33:12.403Z,2.46
2022-11-12T22:38:36.870Z,2.31
2022-11-12T22:43:59.412Z,2.24
2022-11-12T22:49:19.456Z,2.27
2022-11-12T22:54:39.815Z,2.34
2022-11-12T23:00:00.150Z,2.28
2022-11-12T23:05:20.314Z,2.45
2022-11-12T23:10:45.621Z,2.19
2022-11-12T23:16:16.022Z,2.20
2022-11-12T23:21:36.323Z,2.23
2022-11-12T23:26:56.584Z,1.97
2022-11-12T23:32:16.939Z,2.07
2022-11-12T23:37:37.187Z,1.86
2022-11-12T23:42:57.540Z,1.86
2022-11-12T23:48:19.156Z,1.81
2022-11-12T23:53:39.848Z,1.86
2022-11-12T23:59:00.144Z,1.74
